Geffen, Netherlands
Current Conditions -  °F | °C
As of 11:55 AM on Monday 20 Oct 2014 (Local Time) from EHVK Reporting Station
Broken Clouds Broken Clouds  
Wind Chill: 61°   Ceiling: 4200
Heat Index: 61°   Visibility: 6mi
Dew Point: 54°   Wind: 16mph
Humidity: 77%   Direction: 240°WSW
Pressure: 30"   Gusts: NA
Location:  51.74°N, 5.46°E
Report Text: EHVK 200955Z AUTO 24014KT 9999 FEW019 SCT024 BKN042 16/12 Q1016 WHT 24014KT 9999 FEW019 BKN040
Loading
Personal Weather Stations






























Interactive Weather Map
Tropical Storm Tracking
New forecast layout! Learn more

10-Day Weather Forecast

Advertisements
Track Severe Weather on mobile